5PA4 weather

Public forecast

Using degrees Fahrenheit for public forecast. Weather courtesy of forecast.io.

Closest aviation weather report (METAR) to Nesspor Airport

Closest report is Heritage Field, 4.0 nm (7.4 km) NE. Retrieved 2020/08/09 12:54 UTC (2 hours ago):

KPTW 091254Z AUTO 00000KT 7SM FEW080 23/21 A3017 RMK AO2 SLP211 T02330206

Closest aviation forecast (TAF) to Nesspor Airport

Closest forecast is Reading Regional Carl A Spaatz Field, 19.6 nm (36.4 km) NW. Retrieved 2020/08/09 12:24 UTC (2 hours ago):

TAF KRDG 091122Z 0912/1012 00000KT P6SM SKC FM091400 24006KT P6SM SCT050 FM100400 VRB03KT 6SM BR SCT150